createdAt,value
2017-09-21T00:01:59.765Z,28.80
2017-09-21T00:04:29.519Z,28.50
2017-09-21T00:06:58.496Z,30.07
2017-09-21T00:09:27.876Z,30.23
2017-09-21T00:11:57.616Z,29.37
2017-09-21T00:14:26.620Z,30.07
2017-09-21T00:16:55.581Z,30.13
2017-09-21T00:19:24.544Z,30.97
2017-09-21T00:21:53.549Z,30.00
2017-09-21T00:24:23.306Z,27.13
2017-09-21T00:26:52.320Z,31.97
2017-09-21T00:29:21.306Z,30.20
2017-09-21T00:31:50.290Z,31.00
2017-09-21T00:34:19.254Z,30.60
2017-09-21T00:36:48.244Z,31.07
2017-09-21T00:39:17.228Z,30.20
2017-09-21T00:41:46.728Z,30.57
2017-09-21T00:44:15.725Z,27.33
2017-09-21T00:46:44.685Z,29.93
2017-09-21T00:49:14.448Z,30.60
2017-09-21T00:51:43.808Z,32.00
2017-09-21T00:54:13.576Z,31.80
2017-09-21T00:56:42.545Z,30.57
2017-09-21T00:59:11.528Z,30.30
2017-09-21T01:01:40.497Z,30.57
2017-09-21T01:04:10.271Z,31.50
2017-09-21T01:06:39.221Z,31.77
2017-09-21T01:09:08.247Z,31.27
2017-09-21T01:11:37.269Z,32.53
2017-09-21T01:14:06.252Z,31.63
2017-09-21T01:16:40.136Z,30.40
2017-09-21T01:19:09.129Z,33.13
2017-09-21T01:21:38.081Z,31.70
2017-09-21T01:24:07.076Z,33.17
2017-09-21T01:26:36.058Z,32.87
2017-09-21T01:29:05.457Z,33.07
2017-09-21T01:31:34.553Z,31.80
2017-09-21T01:34:03.938Z,31.90
2017-09-21T01:36:33.708Z,32.73
2017-09-21T01:39:03.477Z,32.40
2017-09-21T01:41:32.959Z,33.03
2017-09-21T01:44:02.340Z,31.33
2017-09-21T01:46:31.380Z,33.90
2017-09-21T01:49:00.372Z,34.27
2017-09-21T01:51:29.737Z,33.00
2017-09-21T01:53:58.717Z,32.23
2017-09-21T01:56:27.719Z,31.80
2017-09-21T01:58:56.766Z,31.10
2017-09-21T02:01:26.139Z,31.90
2017-09-21T02:03:55.105Z,31.73
2017-09-21T02:06:24.092Z,33.20
2017-09-21T02:08:53.057Z,34.10
2017-09-21T02:11:22.040Z,32.10
2017-09-21T02:13:50.997Z,34.00
2017-09-21T02:16:20.044Z,32.97
2017-09-21T02:18:49.008Z,31.17
2017-09-21T02:21:17.993Z,30.80
2017-09-21T02:23:46.988Z,33.63
2017-09-21T02:26:15.985Z,31.00
2017-09-21T02:28:44.939Z,30.53
2017-09-21T02:31:13.930Z,32.47
2017-09-21T02:33:44.105Z,28.60
2017-09-21T02:36:13.077Z,33.07
2017-09-21T02:38:42.232Z,30.80
2017-09-21T02:41:11.186Z,32.47
2017-09-21T02:43:40.148Z,30.80
2017-09-21T02:46:09.169Z,32.33
2017-09-21T02:48:38.199Z,31.57
2017-09-21T02:51:07.932Z,31.23
2017-09-21T02:53:36.929Z,34.23
2017-09-21T02:56:05.889Z,33.03
2017-09-21T02:58:35.648Z,32.27
2017-09-21T03:01:04.624Z,33.53
2017-09-21T03:03:34.756Z,32.40
2017-09-21T03:06:04.424Z,30.77
2017-09-21T03:08:34.827Z,32.67
2017-09-21T03:11:08.513Z,32.77
2017-09-21T03:13:37.504Z,31.40
2017-09-21T03:16:06.485Z,30.50
2017-09-21T03:18:35.447Z,32.70
2017-09-21T03:21:04.440Z,32.17
2017-09-21T03:23:33.395Z,33.30
2017-09-21T03:26:02.398Z,30.90
2017-09-21T03:28:31.357Z,33.53
2017-09-21T03:31:00.346Z,32.60
2017-09-21T03:33:29.308Z,34.50
2017-09-21T03:35:58.312Z,35.13
2017-09-21T03:38:27.299Z,31.47
2017-09-21T03:40:56.695Z,35.30
2017-09-21T03:43:26.449Z,34.10
2017-09-21T03:45:56.201Z,33.10
2017-09-21T03:48:25.186Z,33.73
2017-09-21T03:50:54.625Z,33.37
2017-09-21T03:53:23.638Z,33.00
2017-09-21T03:55:52.597Z,31.53
2017-09-21T03:58:21.591Z,31.13
2017-09-21T04:00:50.572Z,34.43
2017-09-21T04:03:19.564Z,32.57
2017-09-21T04:05:48.926Z,33.50
2017-09-21T04:08:18.337Z,33.97
2017-09-21T04:10:48.053Z,33.17
2017-09-21T04:13:17.039Z,31.93
2017-09-21T04:15:46.085Z,35.23
2017-09-21T04:18:15.049Z,33.10
2017-09-21T04:20:44.217Z,31.67
2017-09-21T04:23:13.933Z,33.07
2017-09-21T04:25:42.960Z,33.03
2017-09-21T04:28:12.343Z,32.40
2017-09-21T04:30:41.719Z,34.23
2017-09-21T04:33:11.128Z,35.23
2017-09-21T04:35:40.845Z,32.87
2017-09-21T04:38:09.838Z,35.03
2017-09-21T04:40:39.599Z,33.23
2017-09-21T04:43:08.601Z,33.03
2017-09-21T04:45:37.564Z,33.93
2017-09-21T04:48:06.556Z,34.30
2017-09-21T04:50:35.528Z,34.87
2017-09-21T04:53:04.540Z,35.83
2017-09-21T04:55:33.500Z,33.60
2017-09-21T04:58:02.503Z,36.17
2017-09-21T05:00:31.453Z,33.20
2017-09-21T05:03:00.411Z,33.23
2017-09-21T05:05:29.400Z,32.90
2017-09-21T05:07:58.367Z,33.13
2017-09-21T05:10:27.352Z,32.77
2017-09-21T05:12:56.301Z,31.87
2017-09-21T05:15:26.796Z,35.30
2017-09-21T05:17:55.771Z,34.23
2017-09-21T05:20:25.513Z,35.63
2017-09-21T05:22:54.472Z,35.20
2017-09-21T05:25:23.463Z,34.80
2017-09-21T05:27:52.455Z,34.43
2017-09-21T05:30:21.460Z,34.90
2017-09-21T05:32:50.504Z,33.03
2017-09-21T05:35:20.321Z,34.10
2017-09-21T05:37:49.443Z,34.53
2017-09-21T05:40:18.405Z,34.00
2017-09-21T05:42:47.365Z,33.10
2017-09-21T05:45:16.352Z,33.57
2017-09-21T05:47:45.337Z,35.90
2017-09-21T05:50:14.304Z,34.53
2017-09-21T05:52:43.298Z,34.13
2017-09-21T05:55:12.264Z,34.60
2017-09-21T05:57:41.351Z,34.70
2017-09-21T06:00:10.939Z,34.33
2017-09-21T06:02:39.931Z,34.53
2017-09-21T06:05:08.892Z,34.30
2017-09-21T06:07:37.960Z,34.30
2017-09-21T06:10:06.975Z,35.33
2017-09-21T06:12:35.992Z,35.80
2017-09-21T06:15:04.960Z,34.90
2017-09-21T06:17:33.944Z,34.53
2017-09-21T06:20:02.917Z,34.20
2017-09-21T06:22:31.893Z,32.90
2017-09-21T06:25:01.613Z,32.23
2017-09-21T06:27:30.645Z,34.37
2017-09-21T06:29:59.605Z,32.63
2017-09-21T06:32:28.588Z,31.70
2017-09-21T06:34:57.580Z,32.43
2017-09-21T06:37:26.566Z,32.07
2017-09-21T06:39:55.958Z,31.80
2017-09-21T06:42:25.691Z,30.77
2017-09-21T06:44:54.688Z,31.07
2017-09-21T06:47:23.663Z,31.67
2017-09-21T06:49:52.657Z,32.17
2017-09-21T06:52:21.638Z,34.03
2017-09-21T06:54:51.399Z,33.15
2017-09-21T06:57:20.353Z,34.23
2017-09-21T06:59:49.344Z,30.47
2017-09-21T07:02:18.302Z,31.07
2017-09-21T07:04:47.297Z,31.57
2017-09-21T07:07:16.269Z,30.00
2017-09-21T07:09:45.248Z,28.83
2017-09-21T07:12:14.223Z,30.23
2017-09-21T07:14:43.967Z,29.93
2017-09-21T07:17:12.953Z,29.23
2017-09-21T07:19:41.979Z,29.50
2017-09-21T07:22:11.723Z,29.47
2017-09-21T07:24:40.725Z,28.83
2017-09-21T07:27:09.690Z,29.77
2017-09-21T07:29:38.765Z,30.23
2017-09-21T07:32:08.517Z,27.57
2017-09-21T07:34:37.508Z,27.20
2017-09-21T07:37:06.880Z,30.03
2017-09-21T07:39:35.889Z,27.93
2017-09-21T07:42:04.884Z,28.80
2017-09-21T07:44:33.858Z,28.20
2017-09-21T07:47:02.860Z,27.10
2017-09-21T07:49:33.252Z,25.83
2017-09-21T07:52:02.231Z,26.93
2017-09-21T07:54:31.225Z,26.90
2017-09-21T07:57:00.263Z,27.27
2017-09-21T07:59:29.743Z,27.93
2017-09-21T08:01:58.739Z,26.97
2017-09-21T08:04:28.113Z,26.20
2017-09-21T08:06:57.505Z,28.60
2017-09-21T08:09:27.981Z,26.70
2017-09-21T08:11:57.336Z,25.90
2017-09-21T08:14:26.301Z,23.23
2017-09-21T08:16:55.286Z,24.23
2017-09-21T08:19:24.258Z,25.50
2017-09-21T08:21:53.260Z,23.90
2017-09-21T08:24:22.983Z,25.43
2017-09-21T08:26:51.984Z,23.10
2017-09-21T08:29:20.949Z,23.23
2017-09-21T08:31:49.947Z,23.80
2017-09-21T08:34:18.963Z,23.87
2017-09-21T08:36:47.911Z,22.40
2017-09-21T08:39:16.991Z,22.53
2017-09-21T08:41:46.378Z,20.93
2017-09-21T08:44:15.370Z,21.57
2017-09-21T08:46:44.333Z,22.13
2017-09-21T08:49:13.326Z,20.87
2017-09-21T08:51:42.275Z,22.13
2017-09-21T08:54:11.283Z,20.70
2017-09-21T08:56:40.252Z,20.87
2017-09-21T08:59:09.260Z,21.60
2017-09-21T09:01:38.352Z,19.60
2017-09-21T09:04:07.350Z,22.00
2017-09-21T09:06:36.437Z,18.30
2017-09-21T09:09:05.428Z,18.17
2017-09-21T09:11:34.436Z,17.63
2017-09-21T09:14:03.494Z,17.23
2017-09-21T09:16:32.521Z,19.47
2017-09-21T09:19:01.489Z,17.50
2017-09-21T09:21:30.469Z,17.10
2017-09-21T09:23:59.832Z,18.10
2017-09-21T09:26:28.816Z,16.77
2017-09-21T09:28:58.209Z,16.07
2017-09-21T09:31:27.965Z,16.33
2017-09-21T09:33:57.697Z,15.70
2017-09-21T09:36:26.683Z,14.80
2017-09-21T09:38:56.408Z,14.87
2017-09-21T09:41:25.398Z,13.97
2017-09-21T09:43:54.364Z,15.43
2017-09-21T09:46:24.125Z,15.23
2017-09-21T09:48:53.101Z,14.10
2017-09-21T09:51:22.108Z,14.60
2017-09-21T09:53:51.100Z,13.60
2017-09-21T09:56:20.056Z,13.90
2017-09-21T09:58:49.028Z,14.53
2017-09-21T10:01:18.793Z,12.00
2017-09-21T10:03:47.764Z,12.33
2017-09-21T10:06:16.741Z,13.20
2017-09-21T10:08:46.481Z,11.77
2017-09-21T10:11:16.261Z,11.90
2017-09-21T10:13:45.220Z,11.87
2017-09-21T10:16:14.248Z,10.80
2017-09-21T10:18:43.239Z,10.73
2017-09-21T10:21:12.193Z,11.60
2017-09-21T10:23:41.208Z,9.93
2017-09-21T10:26:10.288Z,9.60
2017-09-21T10:28:39.537Z,9.43
2017-09-21T10:31:11.040Z,10.10
2017-09-21T10:33:40.808Z,9.40
2017-09-21T10:36:10.801Z,9.00
2017-09-21T10:38:39.831Z,9.33
2017-09-21T10:41:08.854Z,8.63
2017-09-21T10:43:38.751Z,8.47
2017-09-21T10:46:07.743Z,8.70
2017-09-21T10:48:36.748Z,8.90
2017-09-21T10:51:06.659Z,8.77
2017-09-21T10:53:35.695Z,6.90
2017-09-21T10:56:04.687Z,5.70
2017-09-21T10:58:33.747Z,5.43
2017-09-21T11:01:02.766Z,5.20
2017-09-21T11:03:31.825Z,6.30
2017-09-21T11:06:00.768Z,6.30
2017-09-21T11:08:29.755Z,7.10
2017-09-21T11:10:58.736Z,6.03
2017-09-21T11:13:28.433Z,5.50
2017-09-21T11:15:58.155Z,5.07
2017-09-21T11:18:27.195Z,5.50
2017-09-21T11:20:57.822Z,3.87
2017-09-21T11:23:27.632Z,3.90
2017-09-21T11:25:56.613Z,3.30
2017-09-21T11:28:25.608Z,3.80
2017-09-21T11:30:54.572Z,4.10
2017-09-21T11:33:23.784Z,5.33
2017-09-21T11:35:53.033Z,5.37
2017-09-21T11:38:22.749Z,5.60
2017-09-21T11:40:52.155Z,4.80
2017-09-21T11:43:21.498Z,4.70
2017-09-21T11:45:51.437Z,4.37
2017-09-21T11:48:20.879Z,4.23
2017-09-21T11:50:51.086Z,3.70
2017-09-21T11:53:20.856Z,3.90
2017-09-21T11:55:49.899Z,3.70
2017-09-21T11:58:19.800Z,3.40
2017-09-21T12:00:49.544Z,3.40
2017-09-21T12:03:18.548Z,4.07
2017-09-21T12:05:49.156Z,5.00
2017-09-21T12:08:18.926Z,3.73
2017-09-21T12:10:47.936Z,4.60
2017-09-21T12:13:18.577Z,4.23
2017-09-21T12:15:47.531Z,3.90
2017-09-21T12:18:16.517Z,4.93
2017-09-21T12:20:45.533Z,4.70
2017-09-21T12:23:15.988Z,4.00
2017-09-21T12:25:45.092Z,4.53
2017-09-21T12:28:14.060Z,3.70
2017-09-21T12:30:43.849Z,4.43
2017-09-21T12:33:13.146Z,4.40
2017-09-21T12:35:42.136Z,3.60
2017-09-21T12:38:11.134Z,4.80
2017-09-21T12:40:40.177Z,4.47
2017-09-21T12:43:09.235Z,4.20
2017-09-21T12:45:39.058Z,4.00
2017-09-21T12:48:08.963Z,4.27
2017-09-21T12:50:38.772Z,4.80
2017-09-21T12:53:07.811Z,5.30
2017-09-21T12:55:36.772Z,5.53
2017-09-21T12:58:06.530Z,5.57
2017-09-21T13:00:36.736Z,5.73
2017-09-21T13:03:05.752Z,5.87
2017-09-21T13:05:34.763Z,5.60
2017-09-21T13:08:04.180Z,4.90
2017-09-21T13:10:33.254Z,4.90
2017-09-21T13:13:02.366Z,4.40
2017-09-21T13:15:31.308Z,5.03
2017-09-21T13:18:00.285Z,5.87
2017-09-21T13:20:29.245Z,5.17
2017-09-21T13:22:58.978Z,5.93
2017-09-21T13:25:27.937Z,5.03
2017-09-21T13:27:56.924Z,5.30
2017-09-21T13:30:26.846Z,4.57
2017-09-21T13:32:55.812Z,5.37
2017-09-21T13:35:24.829Z,5.03
2017-09-21T13:37:53.839Z,5.03
2017-09-21T13:40:23.631Z,5.60
2017-09-21T13:42:52.606Z,6.90
2017-09-21T13:45:21.556Z,5.43
2017-09-21T13:47:50.516Z,5.33
2017-09-21T13:50:20.235Z,5.10
2017-09-21T13:52:49.206Z,4.80
2017-09-21T13:55:18.964Z,4.90
2017-09-21T13:57:47.937Z,4.63
2017-09-21T14:00:16.894Z,5.63
2017-09-21T14:02:46.774Z,4.20
2017-09-21T14:05:15.714Z,5.30
2017-09-21T14:07:45.452Z,5.67
2017-09-21T14:10:14.396Z,5.70
2017-09-21T14:12:43.382Z,5.20
2017-09-21T14:15:12.324Z,5.43
2017-09-21T14:17:41.315Z,4.57
2017-09-21T14:20:10.271Z,5.00
2017-09-21T14:22:39.986Z,5.20
2017-09-21T14:25:09.732Z,5.63
2017-09-21T14:27:38.676Z,5.40
2017-09-21T14:30:08.434Z,5.00
2017-09-21T14:32:37.376Z,4.90
2017-09-21T14:35:07.104Z,5.17
2017-09-21T14:37:36.810Z,5.03
2017-09-21T14:40:06.584Z,4.40
2017-09-21T14:42:35.538Z,4.43
2017-09-21T14:45:04.532Z,5.10
2017-09-21T14:47:33.483Z,5.40
2017-09-21T14:50:03.844Z,5.60
2017-09-21T14:52:33.196Z,5.27
2017-09-21T14:55:02.177Z,5.30
2017-09-21T14:57:31.165Z,5.40
2017-09-21T15:00:00.144Z,4.70
2017-09-21T15:02:29.092Z,5.93
2017-09-21T15:04:58.055Z,4.50
2017-09-21T15:07:27.089Z,5.77
2017-09-21T15:09:57.157Z,4.57
2017-09-21T15:12:26.189Z,5.40
2017-09-21T15:14:55.264Z,4.80
2017-09-21T15:17:25.217Z,4.20
2017-09-21T15:19:54.265Z,4.73
2017-09-21T15:22:23.279Z,4.93
2017-09-21T15:24:52.293Z,4.57
2017-09-21T15:27:21.351Z,4.30
2017-09-21T15:29:51.614Z,4.40
2017-09-21T15:32:20.612Z,5.30
2017-09-21T15:34:49.615Z,5.43
2017-09-21T15:37:18.678Z,4.70
2017-09-21T15:39:48.745Z,4.07
2017-09-21T15:42:17.727Z,5.00
2017-09-21T15:44:46.734Z,4.17
2017-09-21T15:47:15.680Z,4.80
2017-09-21T15:49:45.118Z,5.37
2017-09-21T15:52:14.125Z,5.20
2017-09-21T15:54:44.584Z,4.80
2017-09-21T15:57:13.612Z,5.23
2017-09-21T15:59:42.616Z,4.87
2017-09-21T16:02:13.108Z,5.03
2017-09-21T16:04:42.119Z,4.40
2017-09-21T16:07:11.125Z,4.47
2017-09-21T16:09:40.225Z,4.77
2017-09-21T16:12:10.097Z,4.53
2017-09-21T16:14:40.645Z,5.40
2017-09-21T16:17:10.488Z,4.30
2017-09-21T16:19:39.508Z,4.40
2017-09-21T16:22:09.225Z,4.17
2017-09-21T16:24:38.964Z,4.60
2017-09-21T16:27:07.985Z,4.80
2017-09-21T16:29:37.727Z,5.40
2017-09-21T16:32:07.550Z,4.50
2017-09-21T16:34:38.185Z,4.40
2017-09-21T16:37:07.182Z,5.60
2017-09-21T16:39:36.241Z,4.53
2017-09-21T16:42:05.233Z,4.60
2017-09-21T16:44:35.003Z,4.93
2017-09-21T16:47:04.020Z,5.10
2017-09-21T16:49:32.985Z,5.00
2017-09-21T16:52:02.029Z,4.97
2017-09-21T16:54:31.509Z,4.87
2017-09-21T16:57:00.961Z,5.20
2017-09-21T16:59:30.548Z,5.27
2017-09-21T17:02:00.667Z,4.77
2017-09-21T17:04:30.808Z,5.50
2017-09-21T17:06:59.785Z,5.07
2017-09-21T17:09:29.517Z,5.40
2017-09-21T17:11:59.498Z,4.77
2017-09-21T17:14:29.042Z,5.13
2017-09-21T17:16:58.915Z,4.90
2017-09-21T17:19:28.286Z,4.57
2017-09-21T17:21:57.707Z,4.80
2017-09-21T17:24:26.648Z,4.80
2017-09-21T17:26:55.693Z,4.90
2017-09-21T17:29:25.094Z,5.30
2017-09-21T17:31:54.086Z,5.13
2017-09-21T17:34:23.109Z,5.13
2017-09-21T17:36:52.075Z,5.07
2017-09-21T17:39:21.037Z,5.57
2017-09-21T17:41:50.062Z,5.07
2017-09-21T17:44:19.060Z,5.13
2017-09-21T17:46:48.012Z,5.70
2017-09-21T17:49:16.986Z,5.43
2017-09-21T17:51:46.697Z,5.00
2017-09-21T17:54:15.686Z,5.23
2017-09-21T17:56:44.655Z,5.63
2017-09-21T17:59:14.389Z,5.93
2017-09-21T18:01:43.731Z,5.80
2017-09-21T18:04:12.705Z,5.43
2017-09-21T18:06:41.650Z,5.30
2017-09-21T18:09:10.650Z,5.80
2017-09-21T18:11:39.609Z,6.20
2017-09-21T18:14:09.530Z,5.20
2017-09-21T18:16:39.245Z,5.80
2017-09-21T18:19:09.070Z,5.97
2017-09-21T18:21:38.006Z,6.80
2017-09-21T18:24:06.997Z,7.20
2017-09-21T18:26:36.717Z,6.70
2017-09-21T18:29:05.703Z,6.40
2017-09-21T18:31:34.669Z,6.37
2017-09-21T18:34:03.658Z,7.33
2017-09-21T18:36:32.661Z,10.20
2017-09-21T18:39:01.659Z,12.80
2017-09-21T18:41:30.638Z,12.20
2017-09-21T18:43:59.625Z,12.37
2017-09-21T18:46:28.665Z,13.40
2017-09-21T18:48:58.452Z,11.50
2017-09-21T18:51:27.544Z,10.70
2017-09-21T18:53:56.561Z,9.57
2017-09-21T18:56:26.291Z,8.50
2017-09-21T18:58:55.325Z,8.73
2017-09-21T19:01:25.103Z,9.07
2017-09-21T19:03:54.111Z,8.97
2017-09-21T19:06:23.568Z,9.07
2017-09-21T19:08:52.686Z,9.00
2017-09-21T19:11:23.252Z,9.03
2017-09-21T19:13:53.728Z,8.33
2017-09-21T19:16:22.775Z,8.73
2017-09-21T19:18:51.769Z,8.77
2017-09-21T19:21:20.729Z,8.43
2017-09-21T19:23:49.743Z,8.90
2017-09-21T19:26:18.865Z,8.20
2017-09-21T19:28:47.944Z,8.70
2017-09-21T19:31:16.914Z,8.83
2017-09-21T19:33:46.762Z,9.13
2017-09-21T19:36:15.739Z,8.80
2017-09-21T19:38:44.720Z,9.53
2017-09-21T19:41:13.711Z,7.93
2017-09-21T19:43:42.748Z,8.87
2017-09-21T19:46:11.754Z,8.93
2017-09-21T19:48:41.526Z,9.10
2017-09-21T19:51:10.496Z,8.67
2017-09-21T19:53:39.540Z,9.03
2017-09-21T19:56:09.322Z,9.47
2017-09-21T19:58:38.551Z,9.23
2017-09-21T20:01:08.680Z,8.40
2017-09-21T20:03:38.069Z,10.20
2017-09-21T20:06:07.814Z,10.83
2017-09-21T20:08:37.567Z,10.40
2017-09-21T20:11:07.366Z,10.20
2017-09-21T20:13:36.356Z,10.43
2017-09-21T20:16:05.731Z,10.40
2017-09-21T20:18:34.776Z,11.40
2017-09-21T20:21:03.741Z,10.63
2017-09-21T20:23:34.597Z,11.27
2017-09-21T20:26:03.673Z,10.40
2017-09-21T20:28:32.660Z,12.00
2017-09-21T20:31:16.529Z,11.80
2017-09-21T20:33:49.207Z,10.73
2017-09-21T20:36:20.022Z,12.77
2017-09-21T20:38:49.797Z,12.90
2017-09-21T20:41:19.631Z,13.57
2017-09-21T20:43:49.509Z,12.23
2017-09-21T20:46:18.530Z,13.20
2017-09-21T20:48:47.484Z,14.80
2017-09-21T20:51:17.248Z,13.93
2017-09-21T20:53:46.218Z,12.77
2017-09-21T20:56:15.261Z,13.53
2017-09-21T20:58:44.251Z,13.97
2017-09-21T21:01:14.510Z,13.37
2017-09-21T21:03:44.267Z,14.93
2017-09-21T21:06:16.759Z,14.10
2017-09-21T21:08:46.436Z,13.17
2017-09-21T21:11:15.436Z,12.70
2017-09-21T21:13:44.424Z,14.23
2017-09-21T21:16:13.411Z,13.40
2017-09-21T21:18:42.376Z,12.33
2017-09-21T21:21:11.761Z,13.40
2017-09-21T21:23:40.741Z,12.77
2017-09-21T21:26:10.501Z,13.20
2017-09-21T21:28:39.456Z,13.33
2017-09-21T21:31:08.442Z,13.93
2017-09-21T21:33:37.427Z,14.93
2017-09-21T21:36:07.205Z,13.90
2017-09-21T21:38:36.953Z,14.73
2017-09-21T21:41:06.323Z,15.40
2017-09-21T21:43:35.281Z,15.20
2017-09-21T21:46:04.300Z,14.03
2017-09-21T21:48:33.247Z,15.40
2017-09-21T21:51:02.223Z,15.10
2017-09-21T21:53:31.209Z,15.23
2017-09-21T21:56:00.233Z,14.67
2017-09-21T21:58:29.195Z,14.47
2017-09-21T22:00:58.957Z,15.37
2017-09-21T22:03:27.918Z,16.33
2017-09-21T22:05:56.889Z,16.17
2017-09-21T22:08:26.612Z,16.37
2017-09-21T22:10:55.595Z,15.03
2017-09-21T22:13:25.323Z,14.30
2017-09-21T22:15:54.318Z,14.73
2017-09-21T22:18:23.315Z,14.57
2017-09-21T22:20:52.289Z,15.40
2017-09-21T22:23:21.657Z,17.03
2017-09-21T22:25:51.421Z,16.47
2017-09-21T22:28:21.145Z,16.67
2017-09-21T22:30:50.105Z,17.47
2017-09-21T22:33:19.089Z,18.20
2017-09-21T22:35:48.057Z,16.60
2017-09-21T22:38:17.813Z,16.53
2017-09-21T22:40:46.802Z,16.60
2017-09-21T22:43:15.762Z,16.90
2017-09-21T22:45:45.520Z,16.77
2017-09-21T22:48:14.512Z,16.20
2017-09-21T22:50:43.475Z,17.00
2017-09-21T22:53:12.455Z,17.07
2017-09-21T22:55:41.441Z,17.13
2017-09-21T22:58:10.417Z,16.63
2017-09-21T23:00:40.165Z,16.90
2017-09-21T23:03:09.142Z,15.60
2017-09-21T23:05:38.092Z,16.60
2017-09-21T23:08:07.841Z,16.27
2017-09-21T23:10:36.817Z,16.80
2017-09-21T23:13:05.813Z,15.90
2017-09-21T23:15:34.774Z,16.30
2017-09-21T23:18:03.765Z,16.23
2017-09-21T23:20:32.791Z,16.23
2017-09-21T23:23:02.526Z,16.20
2017-09-21T23:25:31.480Z,17.50
2017-09-21T23:28:01.245Z,16.70
2017-09-21T23:30:30.212Z,16.40
2017-09-21T23:32:59.184Z,18.20
2017-09-21T23:35:28.274Z,17.77
2017-09-21T23:37:57.998Z,18.37
2017-09-21T23:40:26.976Z,18.97
2017-09-21T23:42:56.338Z,17.10
2017-09-21T23:45:25.319Z,18.90
2017-09-21T23:47:54.363Z,17.70
2017-09-21T23:50:23.344Z,18.67
2017-09-21T23:52:53.067Z,18.70
2017-09-21T23:55:22.052Z,18.30
2017-09-21T23:57:51.410Z,18.63
